Time;durP1;ratioP1;P1;durP2;ratioP2;P2;SDS_P1;SDS_P2;PMS_P1;PMS_P2;Temp;Humidity;BMP_temperature;BMP_pressure;BME280_temperature;BME280_humidity;BME280_pressure;Samples;Min_cycle;Max_cycle;Signal;HPM_P1;HPM_P2
2024/02/15 00:00:35;;;;;;;30.35;15.05;;;;;;;11.51;100.00;101290.00;6327121;28;20102;-83
2024/02/15 00:03:37;;;;;;;30.90;15.05;;;;;;;11.53;100.00;101284.66;6328362;28;20055;-82
2024/02/15 00:06:38;;;;;;;32.05;14.68;;;;;;;11.57;100.00;101287.06;6328679;28;20455;-81
2024/02/15 00:09:41;;;;;;;28.67;13.45;;;;;;;11.54;100.00;101287.22;6327775;28;20051;-82
2024/02/15 00:12:42;;;;;;;28.08;14.48;;;;;;;11.66;100.00;101289.22;6328510;28;20052;-82
2024/02/15 00:15:44;;;;;;;30.88;14.93;;;;;;;11.61;100.00;101291.25;6327788;28;20044;-81
2024/02/15 00:18:45;;;;;;;28.27;13.88;;;;;;;11.54;100.00;101302.16;6327790;28;20052;-81
2024/02/15 00:21:47;;;;;;;29.67;14.60;;;;;;;11.62;100.00;101285.03;6328040;28;20708;-81
2024/02/15 00:24:50;;;;;;;32.92;15.07;;;;;;;11.57;100.00;101289.69;6328055;28;20063;-84
2024/02/15 00:27:52;;;;;;;32.10;15.50;;;;;;;11.60;100.00;101293.97;6327190;28;20374;-84
2024/02/15 00:30:53;;;;;;;29.25;14.95;;;;;;;11.59;100.00;101295.75;6328055;28;20059;-82
2024/02/15 00:33:55;;;;;;;26.30;14.32;;;;;;;11.56;100.00;101295.03;6327442;28;20052;-82
2024/02/15 00:36:56;;;;;;;33.22;15.68;;;;;;;11.59;100.00;101298.38;6327331;28;20352;-83
2024/02/15 00:39:59;;;;;;;35.03;16.33;;;;;;;11.57;100.00;101302.84;6327121;28;20051;-83
2024/02/15 00:43:00;;;;;;;33.65;16.23;;;;;;;11.58;100.00;101301.06;6326670;28;20048;-80
2024/02/15 00:46:01;;;;;;;28.17;15.20;;;;;;;11.50;100.00;101311.13;6327316;28;20051;-83
2024/02/15 00:49:03;;;;;;;33.13;15.50;;;;;;;11.59;100.00;101306.28;6326750;28;20459;-82
2024/02/15 00:52:06;;;;;;;31.85;15.18;;;;;;;11.57;100.00;101307.25;6327960;28;20052;-83
2024/02/15 00:55:09;;;;;;;27.63;13.60;;;;;;;11.61;100.00;101306.19;6326905;28;20447;-83
2024/02/15 00:58:11;;;;;;;33.58;14.15;;;;;;;11.53;100.00;101306.56;6326831;28;20059;-84
2024/02/15 01:01:12;;;;;;;30.05;14.60;;;;;;;11.58;100.00;101307.22;6327197;28;20051;-83
2024/02/15 01:04:13;;;;;;;31.90;14.82;;;;;;;11.51;100.00;101302.31;6326919;28;20055;-83
2024/02/15 01:07:15;;;;;;;32.72;14.82;;;;;;;11.50;100.00;101311.13;6326746;28;20105;-85
2024/02/15 01:10:17;;;;;;;35.60;16.50;;;;;;;11.58;100.00;101309.84;6327039;28;20052;-83
2024/02/15 01:13:19;;;;;;;27.10;14.23;;;;;;;11.61;100.00;101303.56;6326297;28;20440;-83
2024/02/15 01:16:21;;;;;;;29.85;15.90;;;;;;;11.50;100.00;101309.34;6326744;28;20059;-83
2024/02/15 01:19:22;;;;;;;31.50;16.10;;;;;;;11.50;100.00;101309.34;6326595;28;20044;-83
2024/02/15 01:22:26;;;;;;;27.80;14.75;;;;;;;11.48;100.00;101307.69;6327019;28;20055;-82
2024/02/15 01:25:30;;;;;;;33.65;15.90;;;;;;;11.47;100.00;101306.84;6326268;28;20048;-82
2024/02/15 01:28:32;;;;;;;34.08;16.35;;;;;;;11.47;100.00;101309.50;6325515;28;20048;-82
2024/02/15 01:31:33;;;;;;;33.30;15.23;;;;;;;11.51;100.00;101304.94;6326441;28;20482;-81
2024/02/15 01:34:34;;;;;;;34.35;16.98;;;;;;;11.55;100.00;101304.72;6325753;28;20051;-84
2024/02/15 01:37:36;;;;;;;30.27;15.40;;;;;;;11.54;100.00;101307.44;6325795;28;20043;-82
2024/02/15 01:40:39;;;;;;;37.08;15.88;;;;;;;11.47;100.00;101306.84;6325944;28;20348;-83
2024/02/15 01:43:44;;;;;;;28.48;14.98;;;;;;;11.50;100.00;101292.72;6325925;28;20129;-83
2024/02/15 01:46:46;;;;;;;33.88;15.68;;;;;;;11.50;100.00;101293.56;6325971;28;20070;-83
2024/02/15 01:49:48;;;;;;;36.20;16.42;;;;;;;11.51;100.00;101304.94;6325956;28;20064;-83
2024/02/15 01:52:52;;;;;;;37.75;15.55;;;;;;;11.49;100.00;101302.38;6326335;28;20135;-83
2024/02/15 01:55:57;;;;;;;33.05;15.30;;;;;;;11.55;100.00;101295.97;6326653;28;20047;-83
2024/02/15 01:58:59;;;;;;;32.40;15.25;;;;;;;11.50;100.00;101297.97;6326672;28;20044;-84
2024/02/15 02:02:01;;;;;;;34.00;16.52;;;;;;;11.56;100.00;101293.25;6327360;28;20055;-84
2024/02/15 02:05:02;;;;;;;29.20;14.07;;;;;;;11.53;100.00;101295.16;6327108;28;20055;-85
2024/02/15 02:08:09;;;;;;;31.08;14.65;;;;;;;11.62;100.00;101294.72;6325467;28;20385;-85
2024/02/15 02:11:12;;;;;;;26.27;13.13;;;;;;;11.64;100.00;101292.88;6326342;28;20048;-85
2024/02/15 02:14:13;;;;;;;31.48;15.00;;;;;;;11.58;100.00;101294.03;6325519;28;20048;-84
2024/02/15 02:17:15;;;;;;;28.05;13.75;;;;;;;11.61;100.00;101282.50;6325050;28;20044;-83
2024/02/15 02:20:16;;;;;;;31.17;13.85;;;;;;;11.57;100.00;101292.31;6325572;28;20063;-83
2024/02/15 02:23:22;;;;;;;26.00;12.90;;;;;;;11.57;100.00;101296.72;6327033;28;20040;-85
2024/02/15 02:26:26;;;;;;;27.23;12.90;;;;;;;11.62;100.00;101286.81;6330991;28;20096;-83
2024/02/15 02:29:30;;;;;;;30.63;13.63;;;;;;;11.60;100.00;101293.97;6330374;28;20051;-82
2024/02/15 02:32:33;;;;;;;28.08;14.20;;;;;;;11.59;100.00;101295.75;6330763;28;20351;-83
2024/02/15 02:35:34;;;;;;;30.85;14.77;;;;;;;11.58;100.00;101291.41;6330657;28;20050;-83
2024/02/15 02:38:37;;;;;;;26.15;12.75;;;;;;;11.60;100.00;101291.31;6330141;28;20055;-83
2024/02/15 02:41:40;;;;;;;25.23;13.88;;;;;;;11.55;100.00;101288.06;6329275;28;20127;-83
2024/02/15 02:44:41;;;;;;;27.95;13.32;;;;;;;11.61;100.00;101291.25;6328982;28;20040;-84
2024/02/15 02:47:43;;;;;;;28.48;12.82;;;;;;;11.66;100.00;101280.47;6328443;28;20046;-82
2024/02/15 02:50:44;;;;;;;31.30;13.50;;;;;;;11.64;100.00;101282.34;6329856;28;20047;-82
2024/02/15 02:53:46;;;;;;;27.35;12.40;;;;;;;11.56;100.00;101281.88;6329394;28;20044;-84
2024/02/15 02:56:49;;;;;;;29.13;12.48;;;;;;;11.60;100.00;101286.91;6330045;28;20048;-84
2024/02/15 02:59:50;;;;;;;28.58;13.02;;;;;;;11.58;100.00;101287.91;6329057;28;20056;-84
2024/02/15 03:02:52;;;;;;;30.63;13.00;;;;;;;11.56;100.00;101298.50;6329733;28;20048;-83
2024/02/15 03:05:54;;;;;;;28.70;12.77;;;;;;;11.58;100.00;101295.78;6329526;28;20048;-83
2024/02/15 03:08:55;;;;;;;27.67;12.32;;;;;;;11.71;100.00;101296.06;6329132;28;20090;-82
2024/02/15 03:11:58;;;;;;;25.67;11.70;;;;;;;11.64;100.00;101296.38;6329159;28;20044;-84
2024/02/15 03:14:59;;;;;;;30.90;13.07;;;;;;;11.67;100.00;101295.34;6329049;28;20348;-83
2024/02/15 03:18:06;;;;;;;30.00;11.90;;;;;;;11.66;100.00;101305.03;6329053;28;20055;-83
2024/02/15 03:21:10;;;;;;;25.88;12.88;;;;;;;11.66;100.00;101301.53;6329312;28;20051;-84
2024/02/15 03:24:11;;;;;;;30.65;12.90;;;;;;;11.65;100.00;101303.31;6328921;28;20450;-83
2024/02/15 03:27:14;;;;;;;26.98;11.43;;;;;;;11.65;100.00;101302.47;6328391;28;20044;-82
2024/02/15 03:30:16;;;;;;;24.98;11.82;;;;;;;11.66;100.00;101304.19;6329338;28;20048;-82
2024/02/15 03:33:17;;;;;;;30.33;11.70;;;;;;;11.64;100.00;101301.63;6328883;28;20115;-83
2024/02/15 03:36:20;;;;;;;29.70;13.23;;;;;;;11.67;100.00;101303.25;6328621;28;20360;-83
2024/02/15 03:39:23;;;;;;;29.13;12.75;;;;;;;11.60;100.00;101304.50;6328155;28;20135;-83
2024/02/15 03:42:26;;;;;;;25.40;11.27;;;;;;;11.62;100.00;101313.16;6328693;28;20455;-82
2024/02/15 03:45:27;;;;;;;29.80;12.07;;;;;;;11.62;100.00;101307.88;6328283;28;20044;-82
2024/02/15 03:48:28;;;;;;;27.92;11.75;;;;;;;11.61;100.00;101309.66;6313727;28;20048;-82
2024/02/15 03:51:31;;;;;;;26.58;12.65;;;;;;;11.64;100.00;101306.91;6303309;28;20048;-82
2024/02/15 03:54:33;;;;;;;17.52;9.88;;;;;;;11.66;100.00;101309.44;6303157;28;20076;-83
2024/02/15 03:57:40;;;;;;;25.98;11.77;;;;;;;11.62;100.00;101302.63;6310635;28;20451;-83
2024/02/15 04:00:41;;;;;;;24.08;11.48;;;;;;;11.62;100.00;101306.09;6328217;28;20052;-83
2024/02/15 04:03:42;;;;;;;25.67;10.35;;;;;;;11.64;100.00;101316.59;6327561;28;20051;-82
2024/02/15 04:06:44;;;;;;;23.80;10.38;;;;;;;11.64;100.00;101319.22;6327892;28;20048;-82
2024/02/15 04:09:46;;;;;;;25.98;12.20;;;;;;;11.72;100.00;101311.81;6327771;28;20044;-82
2024/02/15 04:12:48;;;;;;;23.05;11.02;;;;;;;11.68;100.00;101315.50;6328026;28;20047;-82
2024/02/15 04:15:52;;;;;;;25.52;11.20;;;;;;;11.68;100.00;101316.34;6327612;28;20075;-83
2024/02/15 04:18:57;;;;;;;22.17;10.98;;;;;;;11.68;100.00;101319.00;6327647;28;20133;-82
2024/02/15 04:21:59;;;;;;;25.55;11.65;;;;;;;11.68;100.00;101319.00;6328146;28;20125;-82
2024/02/15 04:25:00;;;;;;;24.33;11.25;;;;;;;11.66;100.00;101315.56;6327728;28;20056;-82
2024/02/15 04:28:04;;;;;;;24.27;11.15;;;;;;;11.72;100.00;101324.09;6326912;28;20056;-83
2024/02/15 04:31:08;;;;;;;24.05;11.93;;;;;;;11.81;100.00;101328.91;6327634;28;20044;-83
2024/02/15 04:34:10;;;;;;;24.10;11.38;;;;;;;11.74;100.00;101316.97;6327793;28;20052;-83
2024/02/15 04:37:13;;;;;;;21.75;10.40;;;;;;;11.73;100.00;101312.66;6327365;28;20040;-83
2024/02/15 04:40:14;;;;;;;21.60;10.02;;;;;;;11.73;100.00;101323.19;6327530;28;20162;-83
2024/02/15 04:43:18;;;;;;;22.70;10.48;;;;;;;11.74;100.00;101324.88;6327012;28;20052;-83
2024/02/15 04:46:21;;;;;;;19.83;9.85;;;;;;;11.72;100.00;101322.31;6326792;28;20048;-83
2024/02/15 04:49:23;;;;;;;24.38;10.85;;;;;;;11.72;100.00;101329.34;6326599;28;20132;-84
2024/02/15 04:52:25;;;;;;;22.30;9.60;;;;;;;11.70;100.00;101334.69;6327285;28;20557;-82
2024/02/15 04:55:26;;;;;;;23.17;10.93;;;;;;;11.69;100.00;101323.31;6326638;28;20040;-81
2024/02/15 04:58:29;;;;;;;25.20;10.80;;;;;;;11.65;100.00;101311.22;6326200;28;20044;-82
2024/02/15 05:01:33;;;;;;;19.13;9.48;;;;;;;11.63;100.00;101312.25;6327191;28;20052;-81
2024/02/15 05:04:36;;;;;;;17.98;9.02;;;;;;;11.65;100.00;101318.28;6326603;28;20043;-83
2024/02/15 05:07:39;;;;;;;20.55;9.82;;;;;;;11.63;100.00;101320.16;6326240;28;20055;-82
2024/02/15 05:10:40;;;;;;;23.42;10.52;;;;;;;11.65;100.00;101320.91;6326237;28;20048;-81
2024/02/15 05:13:43;;;;;;;18.23;9.18;;;;;;;11.63;100.00;101321.00;6326247;28;20048;-82
2024/02/15 05:16:47;;;;;;;20.00;9.85;;;;;;;11.64;100.00;101312.16;6326558;28;20056;-82
2024/02/15 05:19:48;;;;;;;16.15;8.98;;;;;;;11.69;100.00;101319.84;6326248;28;20125;-82
2024/02/15 05:22:50;;;;;;;23.27;9.32;;;;;;;11.72;100.00;101313.56;6326241;28;20055;-82
2024/02/15 05:25:53;;;;;;;21.08;10.23;;;;;;;11.67;100.00;101319.03;6325837;28;20055;-82
2024/02/15 05:28:56;;;;;;;22.15;10.35;;;;;;;11.65;100.00;101324.41;6325359;28;20492;-81
2024/02/15 05:31:59;;;;;;;20.08;10.05;;;;;;;11.70;100.00;101324.16;6325996;28;20485;-81
2024/02/15 05:35:02;;;;;;;20.38;10.30;;;;;;;11.74;100.00;101322.25;6326102;28;20428;-81
2024/02/15 05:38:04;;;;;;;21.42;9.70;;;;;;;11.68;100.00;101316.34;6325303;28;20181;-82
2024/02/15 05:41:07;;;;;;;20.45;8.95;;;;;;;11.69;100.00;101310.16;6317880;28;20052;-82
2024/02/15 05:44:10;;;;;;;19.10;9.60;;;;;;;11.71;100.00;101314.47;6325541;28;20047;-82
2024/02/15 05:47:11;;;;;;;17.35;9.70;;;;;;;11.72;100.00;101313.56;6325720;28;20444;-82
2024/02/15 05:50:15;;;;;;;18.60;10.00;;;;;;;11.72;100.00;101310.91;6325996;28;20133;-84
2024/02/15 05:53:17;;;;;;;18.63;8.80;;;;;;;11.74;100.00;101317.81;6326120;28;20044;-83
2024/02/15 05:56:18;;;;;;;21.60;9.93;;;;;;;11.79;100.00;101323.72;6326031;28;20062;-83
2024/02/15 05:59:21;;;;;;;26.17;10.43;;;;;;;11.78;100.00;101326.44;6324649;28;20044;-85
2024/02/15 06:02:23;;;;;;;26.88;9.18;;;;;;;11.77;100.00;101316.84;6325861;28;20462;-84
2024/02/15 06:05:24;;;;;;;20.40;9.43;;;;;;;11.76;100.00;101328.28;6325559;28;20052;-84
2024/02/15 06:08:26;;;;;;;21.33;8.43;;;;;;;11.74;100.00;101330.16;6325070;28;20040;-82
2024/02/15 06:11:27;;;;;;;17.77;8.05;;;;;;;11.71;100.00;101325.03;6325156;28;20094;-85
2024/02/15 06:14:30;;;;;;;20.90;9.90;;;;;;;11.66;100.00;101322.59;6325517;28;20408;-84
2024/02/15 06:17:32;;;;;;;24.73;11.07;;;;;;;11.67;100.00;101334.84;6325095;28;20058;-82
2024/02/15 06:20:34;;;;;;;22.05;10.35;;;;;;;11.68;100.00;101332.16;6325540;28;20052;-82
2024/02/15 06:23:35;;;;;;;24.63;11.35;;;;;;;11.76;100.00;101328.28;6325156;28;20044;-81
2024/02/15 06:26:37;;;;;;;23.98;10.48;;;;;;;11.74;100.00;101323.09;6325953;28;20129;-84
2024/02/15 06:39:40;;;;;;;22.35;10.23;;;;;;;11.71;100.00;101323.22;6325160;28;20431;-85
2024/02/15 06:42:42;;;;;;;26.42;10.90;;;;;;;11.69;100.00;101315.41;6324238;28;20062;-84
2024/02/15 06:45:46;;;;;;;25.60;11.80;;;;;;;11.71;100.00;101307.44;6324689;28;20436;-84
2024/02/15 06:48:48;;;;;;;30.95;13.50;;;;;;;11.69;100.00;101311.94;6324375;28;20040;-83
2024/02/15 06:51:49;;;;;;;30.20;13.05;;;;;;;11.61;100.00;101320.19;6324380;28;20059;-83
2024/02/15 06:54:52;;;;;;;35.53;12.00;;;;;;;11.67;100.00;101319.91;6324525;28;20051;-82
2024/02/15 06:57:55;;;;;;;31.13;14.00;;;;;;;11.64;100.00;101319.22;6324235;28;20044;-82
2024/02/15 07:00:57;;;;;;;29.88;12.43;;;;;;;11.62;100.00;101315.78;6324201;28;20344;-82
2024/02/15 07:03:59;;;;;;;29.42;13.05;;;;;;;11.62;100.00;101313.16;6324576;28;20355;-82
2024/02/15 07:07:02;;;;;;;28.98;12.65;;;;;;;11.60;100.00;101307.97;6323770;28;20356;-81
2024/02/15 07:10:04;;;;;;;36.35;15.32;;;;;;;11.59;100.00;101315.94;6326610;28;20044;-82
2024/02/15 07:13:05;;;;;;;32.70;14.85;;;;;;;11.57;100.00;101313.38;6328872;28;20066;-82
2024/02/15 07:16:09;;;;;;;40.15;15.73;;;;;;;11.58;100.00;101311.59;6328530;28;20131;-82
2024/02/15 07:19:10;;;;;;;39.35;15.27;;;;;;;11.56;100.00;101314.31;6323352;28;20044;-81
2024/02/15 07:22:12;;;;;;;42.53;16.35;;;;;;;11.54;100.00;101307.44;6323884;28;20048;-81
2024/02/15 07:25:14;;;;;;;40.45;15.57;;;;;;;11.56;100.00;101298.50;6326435;28;20455;-82
2024/02/15 07:28:15;;;;;;;37.20;15.40;;;;;;;11.53;100.00;101306.56;6324443;28;20102;-81
2024/02/15 07:31:18;;;;;;;46.20;16.70;;;;;;;11.54;100.00;101313.53;6328417;28;20052;-81
2024/02/15 07:34:19;;;;;;;36.95;15.18;;;;;;;11.57;100.00;101313.38;6327741;28;20048;-81
2024/02/15 07:37:23;;;;;;;45.75;16.02;;;;;;;11.57;100.00;101317.78;6323780;28;20067;-82
2024/02/15 07:40:28;;;;;;;39.65;16.88;;;;;;;11.61;100.00;101317.56;6326081;28;20055;-82
2024/02/15 07:43:30;;;;;;;44.63;17.67;;;;;;;11.63;100.00;101321.00;6323310;28;20168;-83
2024/02/15 07:46:34;;;;;;;49.53;18.00;;;;;;;11.69;100.00;101327.72;6325530;28;20048;-80
2024/02/15 07:49:36;;;;;;;48.13;15.93;;;;;;;11.73;100.00;101336.34;6322183;28;20067;-82
2024/02/15 07:52:37;;;;;;;37.22;16.02;;;;;;;11.75;100.00;101331.84;6325658;28;20084;-82
2024/02/15 07:55:39;;;;;;;40.10;17.42;;;;;;;11.76;100.00;101330.91;6326457;28;20052;-82
2024/02/15 07:58:42;;;;;;;45.17;18.35;;;;;;;11.73;100.00;101324.03;6326412;28;20052;-82
2024/02/15 08:01:49;;;;;;;41.25;15.98;;;;;;;11.74;100.00;101323.09;6326148;28;20051;-82
2024/02/15 08:04:51;;;;;;;43.53;17.10;;;;;;;11.73;100.00;101323.19;6323768;28;20063;-82
2024/02/15 08:07:57;;;;;;;40.97;16.80;;;;;;;11.75;100.00;101319.53;6325790;28;20083;-82
2024/02/15 08:10:58;;;;;;;39.33;16.73;;;;;;;11.81;100.00;101313.97;6328475;28;20067;-82
2024/02/15 08:14:00;;;;;;;38.30;15.88;;;;;;;11.83;100.00;101317.41;6328094;28;20052;-83
2024/02/15 08:17:03;;;;;;;40.80;15.93;;;;;;;11.86;100.00;101313.78;6328028;28;20471;-82
2024/02/15 08:20:07;;;;;;;38.58;15.80;;;;;;;11.99;100.00;101316.63;6327044;28;20044;-83
2024/02/15 08:23:10;;;;;;;32.15;14.88;;;;;;;12.02;100.00;101314.72;6327671;28;20052;-83
2024/02/15 08:26:11;;;;;;;42.30;15.88;;;;;;;12.03;100.00;101316.41;6327778;28;20048;-82
2024/02/15 08:29:14;;;;;;;38.47;14.75;;;;;;;12.05;100.00;101306.66;6327254;28;20623;-82
2024/02/15 08:32:17;;;;;;;39.85;15.05;;;;;;;12.05;100.00;101311.94;6327869;28;20040;-82
2024/02/15 08:35:18;;;;;;;33.85;13.43;;;;;;;12.09;100.00;101310.00;6329913;28;20048;-83
2024/02/15 08:38:20;;;;;;;35.38;13.93;;;;;;;12.10;100.00;101303.78;6327215;28;20043;-82
2024/02/15 08:41:23;;;;;;;29.35;14.10;;;;;;;12.13;100.00;101293.97;6326127;28;20052;-82
2024/02/15 08:44:25;;;;;;;28.08;12.35;;;;;;;12.19;100.00;101292.78;6327628;28;20052;-83
2024/02/15 08:47:28;;;;;;;25.58;12.77;;;;;;;12.24;100.00;101290.75;6326670;28;20046;-83
2024/02/15 08:50:29;;;;;;;20.33;10.45;;;;;;;12.27;100.00;101289.75;6327324;28;20048;-82
2024/02/15 08:53:31;;;;;;;24.00;10.88;;;;;;;12.24;100.00;101293.38;6326455;28;20040;-82
2024/02/15 08:56:33;;;;;;;22.92;10.45;;;;;;;12.25;100.00;101284.56;6316974;28;20048;-83
2024/02/15 08:59:35;;;;;;;21.45;9.98;;;;;;;12.35;100.00;101282.28;6327474;28;20040;-84
2024/02/15 09:02:37;;;;;;;21.55;9.10;;;;;;;12.39;100.00;101282.03;6326781;28;20050;-81
2024/02/15 09:05:40;;;;;;;15.55;7.95;;;;;;;12.43;100.00;101283.59;6325677;28;20044;-81
2024/02/15 09:08:41;;;;;;;15.75;8.48;;;;;;;12.52;100.00;101276.97;6325489;28;20040;-81
2024/02/15 09:11:43;;;;;;;18.52;8.38;;;;;;;12.56;100.00;101283.81;6326049;28;20051;-82
2024/02/15 09:14:44;;;;;;;15.77;7.55;;;;;;;12.55;100.00;101284.75;6325884;28;20044;-81
2024/02/15 09:17:47;;;;;;;13.88;6.63;;;;;;;12.68;100.00;101288.44;6325350;28;20044;-81
2024/02/15 09:20:48;;;;;;;15.90;6.70;;;;;;;12.68;100.00;101284.94;6325913;28;20056;-82
2024/02/15 09:23:50;;;;;;;13.85;6.82;;;;;;;12.65;100.00;101291.22;6326193;28;20055;-82
2024/02/15 09:26:52;;;;;;;18.83;6.78;;;;;;;12.58;100.00;101294.25;6325718;28;20048;-82
2024/02/15 09:29:55;;;;;;;9.98;5.50;;;;;;;12.61;100.00;101292.31;6325301;28;20055;-82
2024/02/15 09:32:58;;;;;;;15.80;7.07;;;;;;;12.65;100.00;101293.84;6326172;28;20097;-82
2024/02/15 09:35:59;;;;;;;13.52;5.60;;;;;;;12.63;100.00;101287.84;6325736;28;20048;-82
2024/02/15 09:39:01;;;;;;;12.20;5.82;;;;;;;12.64;100.00;101289.53;6325013;28;20063;-81
2024/02/15 09:42:02;;;;;;;12.35;6.40;;;;;;;12.70;100.00;101283.06;6325407;28;20436;-82
2024/02/15 09:45:04;;;;;;;12.95;5.65;;;;;;;12.78;100.00;101293.22;6325799;28;20056;-82
2024/02/15 09:48:08;;;;;;;12.75;5.13;;;;;;;12.77;100.00;101291.50;6324580;28;20359;-82
2024/02/15 09:51:12;;;;;;;8.55;4.35;;;;;;;12.75;100.00;101290.72;6325678;28;20044;-82
2024/02/15 09:54:22;;;;;;;13.75;5.10;;;;;;;12.73;100.00;101295.25;6325911;28;20055;-83
2024/02/15 09:57:23;;;;;;;7.97;3.95;;;;;;;12.70;100.00;101307.66;6325999;28;20043;-83
2024/02/15 10:00:24;;;;;;;8.48;3.45;;;;;;;12.64;100.00;101307.13;6326588;28;20055;-83
2024/02/15 10:03:31;;;;;;;6.80;3.63;;;;;;;12.59;100.00;101302.09;6326185;28;20052;-84
2024/02/15 10:06:32;;;;;;;13.02;3.22;;;;;;;12.56;100.00;101307.53;6326094;28;20355;-84
2024/02/15 10:09:33;;;;;;;9.40;3.20;;;;;;;12.53;100.00;101309.47;6326092;28;20051;-85
2024/02/15 10:12:38;;;;;;;6.07;3.15;;;;;;;12.49;100.00;101302.66;6326446;28;20055;-84
2024/02/15 10:15:41;;;;;;;4.50;2.60;;;;;;;12.49;100.00;101306.16;6326104;28;20162;-84
2024/02/15 10:18:44;;;;;;;6.85;3.47;;;;;;;12.48;100.00;101306.22;6325742;28;20121;-84
2024/02/15 10:21:45;;;;;;;11.80;3.20;;;;;;;12.46;100.00;101306.31;6326508;28;20047;-84
2024/02/15 10:24:47;;;;;;;4.28;2.63;;;;;;;12.51;100.00;101306.94;6325749;28;20356;-83
2024/02/15 10:27:48;;;;;;;6.63;3.60;;;;;;;12.51;100.00;101301.66;6325852;28;20455;-83
2024/02/15 10:30:52;;;;;;;6.15;3.90;;;;;;;12.55;100.00;101286.53;6326176;28;20048;-83
2024/02/15 10:34:03;;;;;;;8.20;3.67;;;;;;;12.54;100.00;101298.00;6325380;28;20056;-84
2024/02/15 10:37:12;;;;;;;3.83;2.38;;;;;;;12.56;100.00;101289.06;6326103;28;20051;-84
2024/02/15 10:40:14;;;;;;;5.17;2.60;;;;;;;12.56;100.00;101283.81;6326278;28;20453;-84
2024/02/15 10:43:18;;;;;;;6.25;2.20;;;;;;;12.56;100.00;101290.88;6326399;28;20044;-84
2024/02/15 10:46:20;;;;;;;7.85;3.00;;;;;;;12.51;100.00;101287.63;6330840;28;20102;-84
2024/02/15 10:49:25;;;;;;;4.32;2.42;;;;;;;12.51;100.00;101277.06;6330410;28;20131;-85
2024/02/15 10:52:32;;;;;;;4.68;2.40;;;;;;;12.52;100.00;101276.97;6331253;28;20072;-84
2024/02/15 10:55:40;;;;;;;6.22;2.28;;;;;;;12.58;100.00;101275.78;6330509;28;20351;-84
2024/02/15 10:58:48;;;;;;;5.85;2.97;;;;;;;12.58;100.00;101268.78;6330210;28;20492;-84
2024/02/15 11:01:51;;;;;;;5.80;2.72;;;;;;;12.50;100.00;101265.69;6330901;28;20059;-84
2024/02/15 11:04:56;;;;;;;3.72;2.20;;;;;;;12.54;100.00;101253.19;6330200;28;20337;-84
2024/02/15 11:07:58;;;;;;;6.63;2.53;;;;;;;12.53;100.00;101256.75;6330317;28;20443;-85
2024/02/15 11:11:02;;;;;;;3.55;2.40;;;;;;;12.58;100.00;101262.63;6330159;28;20055;-84
2024/02/15 11:14:25;;;;;;;4.03;1.77;;;;;;;12.61;100.00;101262.47;6330480;28;20138;-84
2024/02/15 11:17:54;;;;;;;3.05;2.10;;;;;;;12.60;100.00;101266.03;6329709;28;20048;-83
2024/02/15 11:20:59;;;;;;;8.00;2.40;;;;;;;12.61;100.00;101265.94;6315828;28;20141;-84
2024/02/15 11:24:26;;;;;;;5.55;2.40;;;;;;;12.60;100.00;101256.34;6329595;28;20048;-84
2024/02/15 11:27:29;;;;;;;3.20;2.00;;;;;;;12.59;100.00;101251.16;6329386;28;20059;-83
2024/02/15 11:30:34;;;;;;;4.00;2.33;;;;;;;12.59;100.00;101240.63;6329520;28;20044;-84
2024/02/15 11:33:36;;;;;;;2.90;2.10;;;;;;;12.60;100.00;101237.88;6329346;28;20428;-83
2024/02/15 11:36:42;;;;;;;3.42;2.13;;;;;;;12.66;100.00;101237.53;6329882;28;20055;-83
2024/02/15 11:39:44;;;;;;;5.25;2.10;;;;;;;12.67;100.00;101235.75;6328950;28;20055;-83
2024/02/15 11:42:47;;;;;;;4.78;2.47;;;;;;;12.73;100.00;101234.59;6328951;28;20182;-82
2024/02/15 11:45:51;;;;;;;5.03;2.17;;;;;;;12.66;100.00;101234.91;6329165;28;20052;-83
2024/02/15 11:48:54;;;;;;;3.47;2.13;;;;;;;12.63;100.00;101237.72;6328570;28;20044;-84
2024/02/15 11:51:57;;;;;;;8.77;2.70;;;;;;;12.63;100.00;101243.00;6329117;28;20059;-83
2024/02/15 11:55:07;;;;;;;3.30;2.03;;;;;;;12.65;100.00;101242.91;6328410;28;20130;-83
2024/02/15 11:58:21;;;;;;;4.53;2.55;;;;;;;12.57;100.00;101245.94;6328558;28;20048;-83
2024/02/15 12:21:35;;;;;;;3.92;2.10;;;;;;;12.57;100.00;101216.09;6328696;28;20052;-84
2024/02/15 12:24:38;;;;;;;3.50;2.10;;;;;;;12.59;100.00;101219.53;6328579;28;20424;-84
2024/02/15 12:27:40;;;;;;;3.72;2.15;;;;;;;12.57;100.00;101216.09;6328246;28;20048;-85
2024/02/15 12:30:42;;;;;;;4.57;2.10;;;;;;;12.56;100.00;101212.63;6328529;28;20048;-84
2024/02/15 12:33:44;;;;;;;5.47;1.70;;;;;;;12.59;100.00;101214.25;6328300;28;20107;-72
2024/02/15 12:36:45;;;;;;;3.13;1.90;;;;;;;12.63;100.00;101221.06;6330386;28;20048;-85
2024/02/15 12:39:49;;;;;;;9.68;2.53;;;;;;;12.60;100.00;101219.44;6331757;28;20352;-84
2024/02/15 12:42:51;;;;;;;3.70;2.00;;;;;;;12.65;100.00;101214.75;6328734;28;20131;-84
2024/02/15 12:45:54;;;;;;;3.58;1.75;;;;;;;12.69;100.00;101210.16;6328293;28;20054;-84
2024/02/15 12:49:07;;;;;;;7.65;2.20;;;;;;;12.68;100.00;101206.69;6327980;28;20043;-84
2024/02/15 12:52:35;;;;;;;4.10;2.13;;;;;;;12.72;100.00;101203.84;6328549;28;20050;-84
2024/02/15 12:55:40;;;;;;;3.50;1.67;;;;;;;12.74;100.00;101212.56;6327951;28;20360;-85
2024/02/15 12:58:43;;;;;;;4.40;2.05;;;;;;;12.73;100.00;101208.22;6327822;28;20071;-84
2024/02/15 13:01:46;;;;;;;3.00;1.60;;;;;;;12.74;100.00;101205.50;6328374;28;20059;-85
2024/02/15 13:04:47;;;;;;;6.82;2.35;;;;;;;12.72;100.00;101198.59;6327937;28;20048;-84
2024/02/15 13:07:49;;;;;;;2.72;1.77;;;;;;;12.75;100.00;101191.34;6326994;28;20360;-84
2024/02/15 13:10:52;;;;;;;3.92;1.85;;;;;;;12.80;100.00;101189.31;6327705;28;20048;-85
2024/02/15 13:13:54;;;;;;;2.65;1.65;;;;;;;12.91;100.00;101188.75;6327600;28;20501;-85
2024/02/15 13:16:56;;;;;;;3.05;2.10;;;;;;;12.98;100.00;101182.16;6327600;28;20121;-85
2024/02/15 13:20:03;;;;;;;2.75;2.17;;;;;;;12.99;100.00;101175.09;6327397;28;20051;-85
2024/02/15 13:23:09;;;;;;;5.22;1.88;;;;;;;13.00;100.00;101177.66;6327718;28;20082;-85
2024/02/15 13:26:11;;;;;;;4.30;1.92;;;;;;;13.05;100.00;101177.41;6326527;28;20044;-82
2024/02/15 13:29:13;;;;;;;5.97;1.73;;;;;;;13.04;100.00;101171.28;6325519;28;20044;-81
2024/02/15 13:32:16;;;;;;;3.83;1.60;;;;;;;13.06;100.00;101172.03;6326174;28;20379;-81
2024/02/15 13:35:20;;;;;;;4.00;1.40;;;;;;;13.13;100.00;101167.28;6325627;28;20052;-83
2024/02/15 13:38:23;;;;;;;4.80;2.20;;;;;;;13.10;100.00;101172.72;6325836;28;20131;-82
2024/02/15 13:41:26;;;;;;;3.75;1.50;;;;;;;13.13;100.00;101167.28;6325784;28;20325;-82
2024/02/15 13:44:30;;;;;;;5.28;1.85;;;;;;;13.08;100.00;101166.66;6326096;28;20048;-81
2024/02/15 13:47:31;;;;;;;4.03;1.65;;;;;;;13.04;100.00;101155.44;6325375;28;20140;-82
2024/02/15 13:50:33;;;;;;;3.47;1.60;;;;;;;13.01;100.00;101160.88;6326044;28;20044;-82
2024/02/15 13:53:34;;;;;;;4.97;1.63;;;;;;;13.01;100.00;101163.53;6325862;28;20269;-82
2024/02/15 13:56:37;;;;;;;5.40;1.50;;;;;;;13.00;100.00;101156.56;6326022;28;20051;-82
2024/02/15 13:59:38;;;;;;;2.63;1.55;;;;;;;13.06;100.00;101161.47;6325599;28;20066;-81
2024/02/15 14:02:42;;;;;;;5.80;1.85;;;;;;;13.09;100.00;101161.31;6325577;28;20051;-81
2024/02/15 14:05:46;;;;;;;5.47;1.70;;;;;;;13.12;100.00;101161.13;6325460;28;20055;-82
2024/02/15 14:08:47;;;;;;;1.85;1.52;;;;;;;13.25;100.00;101156.03;6322643;28;20052;-83
2024/02/15 14:11:50;;;;;;;5.95;1.95;;;;;;;13.28;100.00;101157.66;6323726;28;20562;-82
2024/02/15 14:14:51;;;;;;;3.70;1.73;;;;;;;13.29;100.00;101161.97;6324439;28;20055;-82
2024/02/15 14:17:53;;;;;;;2.03;1.27;;;;;;;13.30;100.00;101155.75;6324168;28;20071;-81